SWA382 KLAS-KSAN
Flight info
| Callsign | SWA382 |
|---|---|
| Flight time | 0h 44m |
| Altitude | 30000 |
| Route | RADYR2 LVELL LUCKI1 |
| Aircraft | B738/M-SDE2E3FGHIRWXY/LB1 |
Departure
| Time | 2026-05-01 08:53 |
|---|---|
| Airport | Harry Reid International Airport (KLAS) |
Arrival
| Time | 2026-05-01 09:37 |
|---|---|
| Airport | San Diego International Airport (KSAN) |
| Time | Latitude | Longitude | Altitude | Speed | Heading |
|---|---|---|---|---|---|
| 2026-05-01 08:22 | 36.08227 | -115.15059 | 2187 ft | 0 kts | 339° |
| 2026-05-01 08:35 | 36.08198 | -115.15046 | 2188 ft | 5 kts | 338° |
| 2026-05-01 08:35 | 36.08187 | -115.15037 | 2189 ft | 2 kts | 274° |
| 2026-05-01 08:36 | 36.08188 | -115.15022 | 2189 ft | 4 kts | 257° |
| 2026-05-01 08:36 | 36.08191 | -115.15007 | 2189 ft | 2 kts | 232° |
| 2026-05-01 08:36 | 36.08206 | -115.14991 | 2190 ft | 3 kts | 214° |
| 2026-05-01 08:36 | 36.08217 | -115.14982 | 2189 ft | 2 kts | 216° |
| 2026-05-01 08:37 | 36.08224 | -115.14976 | 2188 ft | 0 kts | 216° |
| 2026-05-01 08:46 | 36.08217 | -115.14982 | 2190 ft | 3 kts | 216° |
| 2026-05-01 08:46 | 36.08183 | -115.15013 | 2187 ft | 9 kts | 216° |
| 2026-05-01 08:46 | 36.08133 | -115.15085 | 2187 ft | 13 kts | 228° |
| 2026-05-01 08:46 | 36.08076 | -115.15178 | 2190 ft | 14 kts | 225° |
| 2026-05-01 08:47 | 36.07983 | -115.15203 | 2187 ft | 15 kts | 178° |
| 2026-05-01 08:47 | 36.07880 | -115.15201 | 2189 ft | 14 kts | 179° |
| 2026-05-01 08:47 | 36.07806 | -115.15262 | 2189 ft | 14 kts | 259° |
| 2026-05-01 08:47 | 36.07804 | -115.15364 | 2188 ft | 0 kts | 272° |
| 2026-05-01 08:48 | 36.07805 | -115.15375 | 2188 ft | 4 kts | 272° |
| 2026-05-01 08:48 | 36.07806 | -115.15439 | 2188 ft | 10 kts | 269° |
| 2026-05-01 08:48 | 36.07804 | -115.15543 | 2187 ft | 14 kts | 269° |
| 2026-05-01 08:48 | 36.07804 | -115.15679 | 2187 ft | 17 kts | 270° |
| 2026-05-01 08:49 | 36.07804 | -115.15838 | 2187 ft | 19 kts | 270° |
| 2026-05-01 08:49 | 36.07804 | -115.15999 | 2187 ft | 18 kts | 269° |
| 2026-05-01 08:49 | 36.07803 | -115.16155 | 2186 ft | 18 kts | 270° |
| 2026-05-01 08:49 | 36.07793 | -115.16298 | 2189 ft | 16 kts | 243° |
| 2026-05-01 08:50 | 36.07702 | -115.16369 | 2189 ft | 15 kts | 205° |
| 2026-05-01 08:50 | 36.07606 | -115.16424 | 2187 ft | 15 kts | 205° |
| 2026-05-01 08:50 | 36.07514 | -115.16477 | 2189 ft | 14 kts | 204° |
| 2026-05-01 08:50 | 36.07426 | -115.16527 | 2188 ft | 14 kts | 204° |
| 2026-05-01 08:51 | 36.07388 | -115.16609 | 2189 ft | 9 kts | 287° |
| 2026-05-01 08:51 | 36.07394 | -115.16625 | 2189 ft | 0 kts | 294° |
| 2026-05-01 08:52 | 36.07409 | -115.16667 | 2190 ft | 11 kts | 294° |
| 2026-05-01 08:52 | 36.07494 | -115.16711 | 2191 ft | 18 kts | 13° |
| 2026-05-01 08:52 | 36.07696 | -115.16597 | 2192 ft | 63 kts | 25° |
| 2026-05-01 08:52 | 36.08335 | -115.16227 | 2191 ft | 136 kts | 25° |
| 2026-05-01 08:53 | 36.09368 | -115.15645 | 2372 ft | 182 kts | 25° |
| 2026-05-01 08:53 | 36.10547 | -115.14938 | 3232 ft | 192 kts | 27° |
| 2026-05-01 08:53 | 36.11727 | -115.14138 | 4076 ft | 192 kts | 29° |
| 2026-05-01 08:53 | 36.13030 | -115.13719 | 4487 ft | 212 kts | 354° |
| 2026-05-01 08:54 | 36.14401 | -115.14654 | 4748 ft | 241 kts | 312° |
| 2026-05-01 08:54 | 36.14998 | -115.16639 | 5237 ft | 258 kts | 273° |
| 2026-05-01 08:54 | 36.14778 | -115.18083 | 5680 ft | 263 kts | 248° |
| 2026-05-01 08:54 | 36.13214 | -115.20388 | 6665 ft | 265 kts | 233° |
| 2026-05-01 08:55 | 36.12430 | -115.22432 | 7330 ft | 263 kts | 254° |
| 2026-05-01 08:55 | 36.11861 | -115.24628 | 7837 ft | 279 kts | 254° |
| 2026-05-01 08:55 | 36.11471 | -115.26168 | 8206 ft | 287 kts | 254° |
| 2026-05-01 08:55 | 36.10554 | -115.28383 | 8995 ft | 294 kts | 230° |
| 2026-05-01 08:56 | 36.08933 | -115.29925 | 9893 ft | 297 kts | 206° |
| 2026-05-01 08:56 | 36.06994 | -115.30910 | 10534 ft | 309 kts | 201° |
| 2026-05-01 08:56 | 36.04896 | -115.31883 | 10725 ft | 335 kts | 201° |
| 2026-05-01 08:56 | 36.02662 | -115.32931 | 11142 ft | 350 kts | 202° |
| 2026-05-01 08:57 | 36.00364 | -115.34033 | 11848 ft | 356 kts | 202° |
| 2026-05-01 08:57 | 35.98048 | -115.35153 | 12660 ft | 358 kts | 203° |
| 2026-05-01 08:57 | 35.95748 | -115.36260 | 13438 ft | 362 kts | 203° |
| 2026-05-01 08:57 | 35.93353 | -115.37397 | 14129 ft | 367 kts | 201° |
| 2026-05-01 08:58 | 35.90858 | -115.37975 | 14772 ft | 374 kts | 184° |
| 2026-05-01 08:58 | 35.88231 | -115.38052 | 15447 ft | 379 kts | 182° |
| 2026-05-01 08:58 | 35.85573 | -115.38089 | 16071 ft | 384 kts | 182° |
| 2026-05-01 08:58 | 35.82886 | -115.38130 | 16760 ft | 386 kts | 183° |
| 2026-05-01 08:59 | 35.80170 | -115.38188 | 17332 ft | 393 kts | 184° |
| 2026-05-01 08:59 | 35.77414 | -115.38262 | 17940 ft | 398 kts | 184° |
| 2026-05-01 08:59 | 35.74697 | -115.38344 | 18541 ft | 401 kts | 184° |
| 2026-05-01 08:59 | 35.71932 | -115.38432 | 19137 ft | 403 kts | 185° |
| 2026-05-01 09:00 | 35.69120 | -115.38523 | 19729 ft | 405 kts | 185° |
| 2026-05-01 09:00 | 35.66293 | -115.38614 | 20307 ft | 408 kts | 185° |
| 2026-05-01 09:00 | 35.63440 | -115.38707 | 20856 ft | 411 kts | 185° |
| 2026-05-01 09:00 | 35.60568 | -115.38789 | 21410 ft | 415 kts | 184° |
| 2026-05-01 09:01 | 35.57667 | -115.38703 | 21960 ft | 419 kts | 181° |
| 2026-05-01 09:01 | 35.54734 | -115.38492 | 22509 ft | 423 kts | 180° |
| 2026-05-01 09:01 | 35.51788 | -115.38240 | 23035 ft | 426 kts | 180° |
| 2026-05-01 09:01 | 35.48816 | -115.37985 | 23544 ft | 429 kts | 180° |
| 2026-05-01 09:02 | 35.45835 | -115.37742 | 23956 ft | 432 kts | 181° |
| 2026-05-01 09:02 | 35.42853 | -115.37514 | 24327 ft | 436 kts | 181° |
| 2026-05-01 09:02 | 35.39808 | -115.37292 | 24703 ft | 440 kts | 181° |
| 2026-05-01 09:02 | 35.36742 | -115.37073 | 25081 ft | 443 kts | 181° |
| 2026-05-01 09:03 | 35.33649 | -115.36855 | 25460 ft | 447 kts | 181° |
| 2026-05-01 09:03 | 35.30537 | -115.36636 | 25842 ft | 450 kts | 181° |
| 2026-05-01 09:03 | 35.27397 | -115.36415 | 26214 ft | 453 kts | 181° |
| 2026-05-01 09:03 | 35.24231 | -115.36191 | 26598 ft | 456 kts | 181° |
| 2026-05-01 09:04 | 35.21057 | -115.35966 | 26967 ft | 459 kts | 182° |
| 2026-05-01 09:04 | 35.17869 | -115.35740 | 27405 ft | 459 kts | 182° |
| 2026-05-01 09:04 | 35.14712 | -115.35516 | 27922 ft | 458 kts | 182° |
| 2026-05-01 09:04 | 35.11532 | -115.35292 | 28410 ft | 457 kts | 182° |
| 2026-05-01 09:05 | 35.08345 | -115.35069 | 28845 ft | 458 kts | 182° |
| 2026-05-01 09:05 | 35.05203 | -115.34850 | 29264 ft | 457 kts | 182° |
| 2026-05-01 09:05 | 35.02025 | -115.34630 | 29743 ft | 457 kts | 182° |
| 2026-05-01 09:05 | 34.98833 | -115.34410 | 29889 ft | 461 kts | 182° |
| 2026-05-01 09:06 | 34.92414 | -115.33964 | 29874 ft | 458 kts | 182° |
| 2026-05-01 09:06 | 34.86080 | -115.33522 | 29867 ft | 456 kts | 182° |
| 2026-05-01 09:07 | 34.79766 | -115.33107 | 29859 ft | 456 kts | 185° |
| 2026-05-01 09:07 | 34.76669 | -115.33581 | 29848 ft | 442 kts | 203° |
| 2026-05-01 09:07 | 34.73779 | -115.34792 | 29848 ft | 439 kts | 207° |
| 2026-05-01 09:08 | 34.68058 | -115.37405 | 29836 ft | 440 kts | 207° |
| 2026-05-01 09:08 | 34.62308 | -115.39994 | 29824 ft | 441 kts | 206° |
| 2026-05-01 09:09 | 34.56536 | -115.42531 | 29816 ft | 440 kts | 206° |
| 2026-05-01 09:09 | 34.50771 | -115.45043 | 29815 ft | 439 kts | 206° |
| 2026-05-01 09:10 | 34.45060 | -115.47528 | 29813 ft | 439 kts | 206° |
| 2026-05-01 09:10 | 34.39324 | -115.50024 | 29816 ft | 438 kts | 206° |
| 2026-05-01 09:11 | 34.33592 | -115.52515 | 29822 ft | 437 kts | 206° |
| 2026-05-01 09:11 | 34.30839 | -115.54015 | 29818 ft | 428 kts | 217° |
| 2026-05-01 09:11 | 34.28331 | -115.55924 | 29836 ft | 425 kts | 220° |
| 2026-05-01 09:12 | 34.23330 | -115.59795 | 29832 ft | 428 kts | 218° |
| 2026-05-01 09:12 | 34.18032 | -115.63163 | 29852 ft | 436 kts | 208° |
| 2026-05-01 09:13 | 34.12322 | -115.65733 | 29854 ft | 439 kts | 206° |
| 2026-05-01 09:13 | 34.06592 | -115.68314 | 29848 ft | 439 kts | 207° |
| 2026-05-01 09:14 | 34.00907 | -115.70974 | 29832 ft | 433 kts | 207° |
| 2026-05-01 09:14 | 33.95430 | -115.73555 | 29837 ft | 420 kts | 207° |
| 2026-05-01 09:15 | 33.89994 | -115.76138 | 29682 ft | 422 kts | 208° |
| 2026-05-01 09:15 | 33.87279 | -115.77472 | 29372 ft | 417 kts | 208° |
| 2026-05-01 09:15 | 33.84605 | -115.78793 | 28949 ft | 413 kts | 208° |
| 2026-05-01 09:16 | 33.81962 | -115.80096 | 28546 ft | 409 kts | 208° |
| 2026-05-01 09:16 | 33.79342 | -115.81383 | 28135 ft | 405 kts | 208° |
| 2026-05-01 09:16 | 33.76740 | -115.82655 | 27725 ft | 402 kts | 208° |
| 2026-05-01 09:17 | 33.71558 | -115.85095 | 26921 ft | 396 kts | 207° |
| 2026-05-01 09:17 | 33.68998 | -115.86284 | 26524 ft | 394 kts | 207° |
| 2026-05-01 09:17 | 33.63921 | -115.88649 | 25745 ft | 389 kts | 207° |
| 2026-05-01 09:18 | 33.61407 | -115.89824 | 25365 ft | 387 kts | 207° |
| 2026-05-01 09:18 | 33.56451 | -115.92139 | 24596 ft | 383 kts | 207° |
| 2026-05-01 09:19 | 33.51790 | -115.95014 | 23836 ft | 369 kts | 224° |
| 2026-05-01 09:19 | 33.49943 | -115.97104 | 23415 ft | 363 kts | 236° |
| 2026-05-01 09:19 | 33.48454 | -115.99522 | 22982 ft | 359 kts | 240° |
| 2026-05-01 09:20 | 33.45642 | -116.04469 | 22131 ft | 359 kts | 241° |
| 2026-05-01 09:20 | 33.42826 | -116.09389 | 21335 ft | 356 kts | 240° |
| 2026-05-01 09:21 | 33.40030 | -116.14214 | 20567 ft | 353 kts | 240° |
| 2026-05-01 09:21 | 33.38627 | -116.16628 | 20178 ft | 352 kts | 239° |
| 2026-05-01 09:21 | 33.35836 | -116.21417 | 19426 ft | 348 kts | 239° |
| 2026-05-01 09:22 | 33.32471 | -116.25610 | 18668 ft | 355 kts | 220° |
| 2026-05-01 09:22 | 33.28097 | -116.28443 | 17842 ft | 358 kts | 210° |
| 2026-05-01 09:23 | 33.25846 | -116.29724 | 17421 ft | 357 kts | 209° |
| 2026-05-01 09:23 | 33.21387 | -116.32271 | 16614 ft | 353 kts | 209° |
| 2026-05-01 09:24 | 33.16989 | -116.34822 | 15844 ft | 350 kts | 209° |
| 2026-05-01 09:24 | 33.14806 | -116.36096 | 15472 ft | 348 kts | 209° |
| 2026-05-01 09:24 | 33.10499 | -116.38612 | 14730 ft | 345 kts | 209° |
| 2026-05-01 09:25 | 33.06197 | -116.41126 | 13995 ft | 343 kts | 208° |
| 2026-05-01 09:25 | 33.01915 | -116.43622 | 13190 ft | 341 kts | 208° |
| 2026-05-01 09:26 | 32.99846 | -116.44990 | 12792 ft | 338 kts | 218° |
| 2026-05-01 09:26 | 32.96303 | -116.48561 | 12067 ft | 331 kts | 223° |
| 2026-05-01 09:26 | 32.94579 | -116.50370 | 11714 ft | 329 kts | 223° |
| 2026-05-01 09:27 | 32.91149 | -116.53900 | 11010 ft | 326 kts | 222° |
| 2026-05-01 09:27 | 32.89428 | -116.55645 | 10656 ft | 321 kts | 221° |
| 2026-05-01 09:27 | 32.87730 | -116.57357 | 10311 ft | 317 kts | 221° |
| 2026-05-01 09:28 | 32.86050 | -116.59048 | 9976 ft | 316 kts | 221° |
| 2026-05-01 09:28 | 32.84389 | -116.60720 | 9898 ft | 305 kts | 221° |
| 2026-05-01 09:28 | 32.82799 | -116.62320 | 9867 ft | 293 kts | 221° |
| 2026-05-01 09:28 | 32.81261 | -116.63869 | 9677 ft | 287 kts | 221° |
| 2026-05-01 09:29 | 32.78256 | -116.66892 | 9057 ft | 286 kts | 221° |
| 2026-05-01 09:29 | 32.76921 | -116.68614 | 8736 ft | 283 kts | 240° |
| 2026-05-01 09:30 | 32.75055 | -116.72657 | 8201 ft | 279 kts | 243° |
| 2026-05-01 09:30 | 32.74113 | -116.74677 | 7900 ft | 279 kts | 243° |
| 2026-05-01 09:30 | 32.72230 | -116.78678 | 7368 ft | 276 kts | 243° |
| 2026-05-01 09:31 | 32.71290 | -116.80662 | 7085 ft | 275 kts | 243° |
| 2026-05-01 09:31 | 32.70413 | -116.82661 | 6832 ft | 271 kts | 250° |
| 2026-05-01 09:31 | 32.69167 | -116.86864 | 6282 ft | 268 kts | 254° |
| 2026-05-01 09:32 | 32.68558 | -116.88947 | 6009 ft | 267 kts | 253° |
| 2026-05-01 09:32 | 32.67456 | -116.92692 | 5722 ft | 255 kts | 261° |
| 2026-05-01 09:32 | 32.67427 | -116.94723 | 5512 ft | 242 kts | 283° |
| 2026-05-01 09:33 | 32.67826 | -116.96688 | 4785 ft | 253 kts | 289° |
| 2026-05-01 09:33 | 32.68347 | -116.98690 | 4042 ft | 254 kts | 290° |
| 2026-05-01 09:33 | 32.69352 | -117.02591 | 3043 ft | 236 kts | 287° |
| 2026-05-01 09:34 | 32.69802 | -117.04393 | 2714 ft | 221 kts | 287° |
| 2026-05-01 09:34 | 32.70222 | -117.06092 | 2388 ft | 206 kts | 286° |
| 2026-05-01 09:34 | 32.70959 | -117.09098 | 1788 ft | 174 kts | 286° |
| 2026-05-01 09:35 | 32.71284 | -117.10428 | 1520 ft | 161 kts | 286° |
| 2026-05-01 09:35 | 32.71856 | -117.12779 | 1077 ft | 142 kts | 286° |
| 2026-05-01 09:35 | 32.72133 | -117.13916 | 718 ft | 150 kts | 286° |
| 2026-05-01 09:36 | 32.72430 | -117.15110 | 493 ft | 146 kts | 286° |
| 2026-05-01 09:36 | 32.72710 | -117.16274 | 312 ft | 147 kts | 286° |
| 2026-05-01 09:36 | 32.72984 | -117.17442 | 139 ft | 146 kts | 284° |
| 2026-05-01 09:36 | 32.73252 | -117.18544 | 24 ft | 131 kts | 287° |
| 2026-05-01 09:37 | 32.73480 | -117.19476 | 23 ft | 98 kts | 286° |
| 2026-05-01 09:37 | 32.73617 | -117.20136 | 23 ft | 13 kts | 249° |
| 2026-05-01 09:37 | 32.73571 | -117.20215 | 22 ft | 12 kts | 204° |
| 2026-05-01 09:38 | 32.73424 | -117.20270 | 20 ft | 4 kts | 196° |
| 2026-05-01 09:38 | 32.73414 | -117.20273 | 20 ft | 3 kts | 197° |
| 2026-05-01 09:38 | 32.73388 | -117.20279 | 20 ft | 5 kts | 184° |
| 2026-05-01 09:39 | 32.73336 | -117.20199 | 20 ft | 7 kts | 82° |
| 2026-05-01 09:39 | 32.73338 | -117.20186 | 20 ft | 0 kts | 82° |